Time;durP1;ratioP1;P1;durP2;ratioP2;P2;SDS_P1;SDS_P2;PMS_P1;PMS_P2;Temp;Humidity;BMP_temperature;BMP_pressure;BME280_temperature;BME280_humidity;BME280_pressure;Samples;Min_cycle;Max_cycle;Signal;HPM_P1;HPM_P2
2024/03/03 00:08:01;;;;;;;8.30;3.37;;;;;;;8.59;61.70;100257.00;31094611;28;20531;-84
2024/03/03 00:23:03;;;;;;;18.30;3.27;;;;;;;8.49;58.19;100247.84;31177703;28;20046;-85
2024/03/03 00:38:05;;;;;;;10.13;2.93;;;;;;;8.53;56.25;100260.16;31155681;28;20061;-83
2024/03/03 00:53:07;;;;;;;3.37;2.33;;;;;;;8.42;55.16;100270.31;31160516;28;20476;-75
2024/03/03 01:08:10;;;;;;;10.23;2.40;;;;;;;8.04;54.78;100276.72;31121554;28;20069;-85
2024/03/03 01:23:14;;;;;;;2.63;1.83;;;;;;;8.59;53.25;100284.06;31136884;28;20050;-86
2024/03/03 01:38:16;;;;;;;22.27;3.33;;;;;;;8.31;52.16;100296.63;31133668;28;20054;-86
2024/03/03 01:53:19;;;;;;;7.13;2.33;;;;;;;8.52;51.89;100306.53;31073946;28;20057;-85
2024/03/03 02:08:22;;;;;;;4.23;1.90;;;;;;;8.82;52.17;100314.03;31081615;28;20057;-86
2024/03/03 02:23:24;;;;;;;2.70;1.83;;;;;;;8.32;51.64;100317.13;31139780;28;20407;-85
2024/03/03 02:38:26;;;;;;;4.90;2.87;;;;;;;8.03;51.94;100324.63;31142637;28;20431;-83
2024/03/03 02:53:28;;;;;;;4.40;2.63;;;;;;;7.43;52.64;100325.69;31138055;28;20141;-74
2024/03/03 03:08:30;;;;;;;2.43;2.13;;;;;;;7.60;51.89;100334.88;31104804;28;20068;-75
2024/03/03 03:23:32;;;;;;;2.73;2.03;;;;;;;7.48;52.02;100335.31;31096614;28;20050;-75
2024/03/03 03:38:34;;;;;;;4.17;1.90;;;;;;;7.39;51.87;100343.81;31106201;28;20082;-75
2024/03/03 03:53:37;;;;;;;6.83;2.07;;;;;;;7.35;52.46;100328.78;31106578;28;20144;-74
2024/03/03 04:08:42;;;;;;;3.30;1.90;;;;;;;7.50;51.47;100335.69;31101468;28;20097;-73
2024/03/03 04:23:45;;;;;;;7.87;2.50;;;;;;;7.36;51.73;100341.13;31066775;28;20060;-74
2024/03/03 04:38:47;;;;;;;7.10;2.10;;;;;;;7.37;51.60;100343.44;31065892;28;20054;-76
2024/03/03 04:53:49;;;;;;;2.70;1.60;;;;;;;7.24;51.79;100346.97;31084080;28;20488;-76
2024/03/03 05:08:51;;;;;;;5.43;1.90;;;;;;;7.39;52.21;100343.81;31114559;28;20507;-86
2024/03/03 05:23:53;;;;;;;3.87;1.80;;;;;;;7.38;52.11;100349.59;31129366;28;20049;-86
2024/03/03 05:38:57;;;;;;;2.47;1.60;;;;;;;7.31;51.87;100355.81;31156695;28;20067;-87
2024/03/03 05:54:01;;;;;;;3.07;2.00;;;;;;;7.49;51.89;100361.16;31196436;28;20089;-83
2024/03/03 06:09:08;;;;;;;4.00;2.27;;;;;;;7.57;51.03;100351.09;31164405;28;20145;-83
2024/03/03 06:24:12;;;;;;;7.37;3.57;;;;;;;8.22;49.93;100350.41;31181071;28;20050;-85
2024/03/03 06:39:14;;;;;;;9.27;2.87;;;;;;;8.11;50.10;100353.16;31176975;28;20052;-84
2024/03/03 06:54:16;;;;;;;4.70;3.10;;;;;;;8.46;49.34;100359.56;31157674;28;20064;-84
2024/03/03 07:09:24;;;;;;;6.33;3.40;;;;;;;8.38;49.40;100350.72;31099568;28;20050;-75
2024/03/03 07:24:26;;;;;;;4.97;3.27;;;;;;;8.43;49.55;100361.13;31086284;28;20128;-75
2024/03/03 07:39:30;;;;;;;4.87;3.07;;;;;;;9.14;48.40;100365.94;31092481;28;20058;-75
2024/03/03 07:54:32;;;;;;;5.40;3.40;;;;;;;9.15;48.83;100367.50;31099154;28;20058;-84
2024/03/03 08:09:34;;;;;;;5.27;2.97;;;;;;;9.48;47.68;100382.22;31177091;28;20077;-84
2024/03/03 08:24:36;;;;;;;9.33;3.00;;;;;;;10.02;46.58;100376.94;31098747;28;20069;-85
2024/03/03 08:39:38;;;;;;;5.10;2.70;;;;;;;10.86;45.95;100373.44;31131262;28;20049;-86
2024/03/03 08:54:41;;;;;;;6.87;2.70;;;;;;;11.22;45.98;100374.34;31156160;28;20057;-82
2024/03/03 09:09:43;;;;;;;5.70;2.83;;;;;;;11.76;45.63;100376.84;31151314;28;20061;-88
2024/03/03 09:24:48;;;;;;;4.70;2.60;;;;;;;11.54;45.49;100383.88;31097210;28;20116;-83
2024/03/03 09:39:51;;;;;;;3.47;2.17;;;;;;;11.61;45.98;100378.28;31133895;28;20136;-85
2024/03/03 09:54:55;;;;;;;6.37;2.27;;;;;;;11.18;47.01;100365.50;31176631;28;20050;-83
2024/03/03 10:10:03;;;;;;;5.97;2.10;;;;;;;11.59;47.38;100375.19;31099980;28;20104;-79
2024/03/03 10:25:17;;;;;;;3.73;2.50;;;;;;;12.38;46.52;100347.91;31189199;28;20050;-85
2024/03/03 10:40:23;;;;;;;6.60;2.47;;;;;;;12.79;45.53;100343.81;31179150;28;20392;-83
2024/03/03 10:55:28;;;;;;;5.03;2.30;;;;;;;12.88;45.35;100365.78;31125669;28;20065;-81
2024/03/03 11:10:32;;;;;;;3.80;2.13;;;;;;;12.94;45.39;100336.84;31092348;28;20058;-81
2024/03/03 11:25:54;;;;;;;3.47;2.10;;;;;;;12.70;45.60;100333.53;31118908;28;20097;-80
2024/03/03 11:40:56;;;;;;;7.50;3.20;;;;;;;12.53;46.09;100316.41;31101458;28;20087;-79
2024/03/03 11:55:58;;;;;;;6.77;3.17;;;;;;;12.53;46.49;100316.41;31101526;28;20138;-75
2024/03/03 12:11:00;;;;;;;4.70;2.43;;;;;;;12.24;47.15;100332.69;31069576;28;20046;-75
2024/03/03 12:26:03;;;;;;;5.57;2.70;;;;;;;11.92;48.26;100344.25;31068027;28;20053;-73
2024/03/03 12:41:05;;;;;;;9.67;3.00;;;;;;;12.26;47.84;100348.59;31066755;28;20046;-75
2024/03/03 12:56:17;;;;;;;6.53;3.00;;;;;;;12.50;48.29;100349.97;31070828;28;20053;-76
2024/03/03 13:11:22;;;;;;;8.50;3.00;;;;;;;12.58;48.60;100356.75;31087693;28;20062;-75
2024/03/03 13:26:25;;;;;;;17.87;3.77;;;;;;;12.68;48.68;100344.09;31090230;28;20061;-76
2024/03/03 13:41:27;;;;;;;7.83;3.67;;;;;;;12.71;49.05;100347.91;31040739;28;20080;-75
2024/03/03 13:56:30;;;;;;;6.63;3.00;;;;;;;12.64;49.28;100338.72;31074419;28;20049;-76
2024/03/03 14:11:36;;;;;;;5.50;3.20;;;;;;;12.28;50.08;100351.66;31081308;28;20086;-77
2024/03/03 14:26:38;;;;;;;7.73;3.10;;;;;;;11.99;50.73;100367.84;31095100;28;20311;-75
2024/03/03 14:41:40;;;;;;;6.73;3.30;;;;;;;11.47;51.76;100384.00;31088814;28;20061;-75
2024/03/03 14:56:43;;;;;;;9.10;3.40;;;;;;;11.67;50.72;100409.25;31054571;28;20156;-75
2024/03/03 15:11:46;;;;;;;9.97;3.60;;;;;;;11.39;51.28;100399.66;31076011;28;20129;-74
2024/03/03 15:26:48;;;;;;;10.17;4.00;;;;;;;10.91;52.51;100409.03;31094255;28;20049;-81
2024/03/03 15:41:50;;;;;;;9.87;3.80;;;;;;;10.88;52.84;100423.41;31141092;28;20105;-81
2024/03/03 15:56:53;;;;;;;13.70;4.23;;;;;;;10.70;53.21;100431.06;31115957;28;20080;-82
2024/03/03 16:11:56;;;;;;;9.90;4.93;;;;;;;10.59;53.80;100444.81;31137459;28;20451;-83
2024/03/03 16:26:58;;;;;;;12.03;5.07;;;;;;;10.35;54.29;100447.88;31187816;28;20061;-80
2024/03/03 16:42:02;;;;;;;9.67;4.70;;;;;;;10.41;54.59;100452.41;31142167;28;20377;-82
2024/03/03 16:57:05;;;;;;;8.63;5.00;;;;;;;10.22;55.80;100455.78;31071953;28;20118;-81
2024/03/03 17:12:07;;;;;;;10.13;5.43;;;;;;;9.80;58.37;100463.22;31090089;28;20077;-82
2024/03/03 17:27:09;;;;;;;9.60;5.13;;;;;;;9.81;58.96;100464.75;31093018;28;20051;-82
2024/03/03 17:42:13;;;;;;;10.70;5.20;;;;;;;10.06;58.29;100463.72;31083971;28;20384;-79
2024/03/03 17:57:15;;;;;;;8.47;5.47;;;;;;;10.06;58.83;100472.63;31093506;28;20053;-77
2024/03/03 18:12:21;;;;;;;11.70;5.67;;;;;;;10.21;60.42;100470.53;31095116;28;20065;-75
2024/03/03 18:27:29;;;;;;;10.30;5.93;;;;;;;10.00;59.93;100481.59;31076898;28;20183;-77
2024/03/03 18:42:33;;;;;;;7.30;4.70;;;;;;;9.88;58.80;100480.97;31101092;28;20056;-77
2024/03/03 18:57:36;;;;;;;30.93;12.80;;;;;;;9.28;59.14;100476.09;31106286;28;20053;-78
2024/03/03 19:12:38;;;;;;;8.47;5.23;;;;;;;9.24;58.26;100473.41;31093971;28;20054;-78
2024/03/03 19:27:41;;;;;;;17.00;5.33;;;;;;;9.37;56.37;100489.19;31081602;28;20062;-78
2024/03/03 19:42:43;;;;;;;10.87;4.83;;;;;;;8.48;57.20;100485.16;31098664;28;20057;-76
2024/03/03 19:57:47;;;;;;;11.93;5.90;;;;;;;8.66;56.16;100504.00;31089542;28;20046;-76
2024/03/03 20:12:49;;;;;;;11.17;6.30;;;;;;;8.46;56.62;100501.03;31023143;28;20440;-75
2024/03/03 20:27:52;;;;;;;11.17;5.93;;;;;;;7.83;60.27;100515.47;30950248;28;20054;-74
2024/03/03 20:42:55;;;;;;;11.47;5.20;;;;;;;7.60;62.97;100524.00;30957565;28;20104;-75
2024/03/03 20:57:57;;;;;;;10.40;5.43;;;;;;;7.43;64.65;100519.38;30935254;28;20046;-75
2024/03/03 21:12:59;;;;;;;7.57;4.80;;;;;;;7.24;69.29;100525.19;31015928;28;20054;-75
2024/03/03 21:28:01;;;;;;;10.27;5.57;;;;;;;7.33;70.25;100525.53;31094022;28;20050;-75
2024/03/03 21:43:10;;;;;;;12.90;5.27;;;;;;;7.41;71.21;100527.09;31101049;28;20042;-75
2024/03/03 21:58:13;;;;;;;11.13;5.87;;;;;;;7.46;70.37;100518.63;31078929;28;20053;-75
2024/03/03 22:13:15;;;;;;;12.57;5.83;;;;;;;6.70;77.63;100516.22;31079108;28;20061;-75
2024/03/03 22:28:17;;;;;;;11.07;6.17;;;;;;;6.72;77.15;100527.41;31078635;28;20052;-74
2024/03/03 22:43:19;;;;;;;9.03;5.30;;;;;;;6.45;81.93;100535.78;31096140;28;20104;-74
2024/03/03 22:58:21;;;;;;;10.63;5.50;;;;;;;6.48;84.11;100529.63;31089207;28;20145;-75
2024/03/03 23:13:24;;;;;;;13.63;6.60;;;;;;;7.25;78.53;100540.22;31093782;28;20055;-75
2024/03/03 23:28:26;;;;;;;14.93;6.30;;;;;;;6.51;83.48;100552.38;31103726;28;20073;-75
2024/03/03 23:43:28;;;;;;;10.40;5.17;;;;;;;6.58;82.02;100551.63;31082522;28;20058;-73
2024/03/03 23:58:32;;;;;;;10.40;5.70;;;;;;;6.55;81.26;100549.69;31078724;28;20064;-74
